createdAt,value
2023-03-14T00:00:14.906Z,11.45
2023-03-14T00:02:41.629Z,13.15
2023-03-14T00:05:09.668Z,16.13
2023-03-14T00:07:38.148Z,13.57
2023-03-14T00:10:13.380Z,10.52
2023-03-14T00:12:40.330Z,10.75
2023-03-14T00:15:08.044Z,5.90
2023-03-14T00:17:36.231Z,10.38
2023-03-14T00:20:08.956Z,10.18
2023-03-14T00:22:36.651Z,12.15
2023-03-14T00:25:03.829Z,10.05
2023-03-14T00:27:30.350Z,13.02
2023-03-14T00:29:56.908Z,15.45
2023-03-14T00:32:23.411Z,15.63
2023-03-14T00:34:50.032Z,11.85
2023-03-14T00:37:16.555Z,9.02
2023-03-14T00:39:43.110Z,12.45
2023-03-14T00:42:09.609Z,14.57
2023-03-14T00:44:36.199Z,13.48
2023-03-14T00:47:02.670Z,13.98
2023-03-14T00:49:29.153Z,7.57
2023-03-14T00:51:55.622Z,9.57
2023-03-14T00:54:22.301Z,12.23
2023-03-14T00:56:48.985Z,13.43
2023-03-14T00:59:16.597Z,8.45
2023-03-14T01:01:43.187Z,10.13
2023-03-14T01:04:09.758Z,9.80
2023-03-14T01:06:36.311Z,9.75
2023-03-14T01:09:03.653Z,8.50
2023-03-14T01:11:35.770Z,7.68
2023-03-14T01:14:03.501Z,10.65
2023-03-14T01:16:33.105Z,12.43
2023-03-14T01:18:59.702Z,10.50
2023-03-14T01:21:31.597Z,10.30
2023-03-14T01:24:00.056Z,16.15
2023-03-14T01:26:28.130Z,14.70
2023-03-14T01:28:55.935Z,13.38
2023-03-14T01:31:22.619Z,14.07
2023-03-14T01:33:49.152Z,13.73
2023-03-14T01:36:15.938Z,13.82
2023-03-14T01:38:42.732Z,13.60
2023-03-14T01:41:15.361Z,18.95
2023-03-14T01:43:42.184Z,7.65
2023-03-14T01:46:09.858Z,9.57
2023-03-14T01:49:00.643Z,7.07
2023-03-14T01:51:48.385Z,10.45
2023-03-14T01:54:41.545Z,6.72
2023-03-14T01:57:14.889Z,7.70
2023-03-14T01:59:46.275Z,5.28
2023-03-14T02:02:13.489Z,4.63
2023-03-14T02:04:40.728Z,8.77
2023-03-14T02:07:13.944Z,8.93
2023-03-14T02:09:42.308Z,9.40
2023-03-14T02:12:10.463Z,9.93
2023-03-14T02:14:38.647Z,9.20
2023-03-14T02:17:08.367Z,7.85
2023-03-14T02:19:55.736Z,11.50
2023-03-14T02:22:22.363Z,10.32
2023-03-14T02:25:28.806Z,7.85
2023-03-14T02:27:55.424Z,6.80
2023-03-14T02:30:29.008Z,4.93
2023-03-14T02:32:59.838Z,6.45
2023-03-14T02:35:30.587Z,10.93
2023-03-14T02:38:25.618Z,6.90
2023-03-14T02:40:52.080Z,7.72
2023-03-14T02:43:18.618Z,6.95
2023-03-14T02:45:49.283Z,6.25
2023-03-14T02:48:27.383Z,6.90
2023-03-14T02:50:57.118Z,5.78
2023-03-14T02:53:30.145Z,4.97
2023-03-14T02:55:56.608Z,6.55
2023-03-14T02:58:23.069Z,7.38
2023-03-14T03:00:49.592Z,6.15
2023-03-14T03:03:16.573Z,5.70
2023-03-14T03:05:46.104Z,7.50
2023-03-14T03:08:12.541Z,8.30
2023-03-14T03:10:39.171Z,6.20
2023-03-14T03:13:05.672Z,7.07
2023-03-14T03:15:32.113Z,10.82
2023-03-14T03:17:58.546Z,9.50
2023-03-14T03:20:25.107Z,11.48
2023-03-14T03:22:51.762Z,13.95
2023-03-14T03:25:18.259Z,9.82
2023-03-14T03:27:44.756Z,9.65
2023-03-14T03:30:11.850Z,11.43
2023-03-14T03:32:38.346Z,10.95
2023-03-14T03:35:05.667Z,10.98
2023-03-14T03:37:33.059Z,11.63
2023-03-14T03:39:59.660Z,8.10
2023-03-14T03:42:30.367Z,12.10
2023-03-14T03:44:56.839Z,14.68
2023-03-14T03:47:23.331Z,10.00
2023-03-14T03:49:49.864Z,9.85
2023-03-14T03:52:17.454Z,12.55
2023-03-14T03:54:43.886Z,12.00
2023-03-14T03:57:10.331Z,11.80
2023-03-14T03:59:36.824Z,18.35
2023-03-14T04:02:03.658Z,9.50
2023-03-14T04:04:30.312Z,14.48
2023-03-14T04:06:56.868Z,11.65
2023-03-14T04:09:23.407Z,19.30
2023-03-14T04:11:49.883Z,11.10
2023-03-14T04:14:16.960Z,15.27
2023-03-14T04:16:43.505Z,11.52
2023-03-14T04:19:09.929Z,10.45
2023-03-14T04:21:36.347Z,11.75
2023-03-14T04:24:02.912Z,11.52
2023-03-14T04:26:29.377Z,15.77
2023-03-14T04:28:55.871Z,14.10
2023-03-14T04:31:22.563Z,14.13
2023-03-14T04:33:49.538Z,12.05
2023-03-14T04:36:15.998Z,14.48
2023-03-14T04:38:42.429Z,12.73
2023-03-14T04:41:08.981Z,11.60
2023-03-14T04:43:35.424Z,8.25
2023-03-14T04:46:01.919Z,12.35
2023-03-14T04:48:28.592Z,10.52
2023-03-14T04:50:55.067Z,12.88
2023-03-14T04:53:21.545Z,14.48
2023-03-14T04:55:52.178Z,10.48
2023-03-14T04:58:19.587Z,7.47
2023-03-14T05:00:46.485Z,10.50
2023-03-14T05:03:13.117Z,8.18
2023-03-14T05:05:39.948Z,8.73
2023-03-14T05:08:06.457Z,8.35
2023-03-14T05:10:33.055Z,8.88
2023-03-14T05:12:59.468Z,9.93
2023-03-14T05:15:26.028Z,11.73
2023-03-14T05:17:53.019Z,5.10
2023-03-14T05:20:19.427Z,1.90
2023-03-14T05:22:45.928Z,2.35
2023-03-14T05:25:12.591Z,3.88
2023-03-14T05:27:39.034Z,3.50
2023-03-14T05:30:06.699Z,2.47
2023-03-14T05:32:33.781Z,3.13
2023-03-14T05:35:00.442Z,3.47
2023-03-14T05:37:27.440Z,2.15
2023-03-14T05:39:54.045Z,1.92
2023-03-14T05:42:20.859Z,6.93
2023-03-14T05:44:47.311Z,3.30
2023-03-14T05:47:13.782Z,2.80
2023-03-14T05:49:40.276Z,2.05
2023-03-14T05:52:06.788Z,3.08
2023-03-14T05:54:33.251Z,2.92
2023-03-14T05:56:59.672Z,1.75
2023-03-14T05:59:26.146Z,5.45
2023-03-14T06:01:52.689Z,5.03
2023-03-14T06:04:19.179Z,1.67
2023-03-14T06:06:45.695Z,2.17
2023-03-14T06:09:12.152Z,4.40
2023-03-14T06:11:38.741Z,3.05
2023-03-14T06:14:05.284Z,2.78
2023-03-14T06:16:33.101Z,2.72
2023-03-14T06:18:59.738Z,1.95
2023-03-14T06:21:26.477Z,1.88
2023-03-14T06:23:52.882Z,1.67
2023-03-14T06:26:19.368Z,4.65
2023-03-14T06:28:45.841Z,1.20
2023-03-14T06:31:12.275Z,2.13
2023-03-14T06:33:38.821Z,2.15
2023-03-14T06:36:05.581Z,2.05
2023-03-14T06:38:32.073Z,2.47
2023-03-14T06:41:04.489Z,3.50
2023-03-14T06:43:30.957Z,1.52
2023-03-14T06:45:57.661Z,1.75
2023-03-14T06:48:24.153Z,1.35
2023-03-14T06:50:50.632Z,1.95
2023-03-14T06:53:17.081Z,1.00
2023-03-14T06:55:44.200Z,1.05
2023-03-14T06:58:11.037Z,2.17
2023-03-14T07:00:37.576Z,3.70
2023-03-14T07:03:03.998Z,3.50
2023-03-14T07:05:30.487Z,4.65
2023-03-14T07:07:57.438Z,2.67
2023-03-14T07:10:23.856Z,1.65
2023-03-14T07:12:50.282Z,1.85
2023-03-14T07:15:18.875Z,0.63
2023-03-14T07:17:46.025Z,0.65
2023-03-14T07:20:12.523Z,1.17
2023-03-14T07:22:38.998Z,1.23
2023-03-14T07:25:06.429Z,1.77
2023-03-14T07:27:32.887Z,2.28
2023-03-14T07:29:59.315Z,3.20
2023-03-14T07:32:25.896Z,3.75
2023-03-14T07:34:52.342Z,4.55
2023-03-14T07:37:18.785Z,3.50
2023-03-14T07:39:45.250Z,3.22
2023-03-14T07:42:12.039Z,4.40
2023-03-14T07:44:38.526Z,2.40
2023-03-14T07:47:05.092Z,1.98
2023-03-14T07:49:31.526Z,4.75
2023-03-14T07:51:59.086Z,1.55
2023-03-14T07:54:25.973Z,1.48
2023-03-14T07:56:53.016Z,1.17
2023-03-14T07:59:19.920Z,1.85
2023-03-14T08:01:46.360Z,1.35
2023-03-14T08:04:12.877Z,0.38
2023-03-14T08:06:39.414Z,0.43
2023-03-14T08:09:05.964Z,0.40
2023-03-14T08:11:32.474Z,1.52
2023-03-14T08:13:59.099Z,0.57
2023-03-14T08:16:25.649Z,1.25
2023-03-14T08:18:52.269Z,0.40
2023-03-14T08:21:18.728Z,1.27
2023-03-14T08:23:45.175Z,0.32
2023-03-14T08:26:14.150Z,1.20
2023-03-14T08:28:40.672Z,1.65
2023-03-14T08:31:07.400Z,0.03
2023-03-14T08:33:33.932Z,0.10
2023-03-14T08:36:01.607Z,0.55
2023-03-14T08:38:28.133Z,0.98
2023-03-14T08:41:02.720Z,0.52
2023-03-14T08:43:30.001Z,2.95
2023-03-14T08:46:00.876Z,0.38
2023-03-14T08:48:27.446Z,0.63
2023-03-14T08:50:54.174Z,0.95
2023-03-14T08:53:21.873Z,0.43
2023-03-14T08:55:48.358Z,0.00
2023-03-14T08:58:14.832Z,2.20
2023-03-14T09:00:41.302Z,0.90
2023-03-14T09:03:07.893Z,0.30
2023-03-14T09:05:35.474Z,2.08
2023-03-14T09:08:02.298Z,1.27
2023-03-14T09:10:28.785Z,1.33
2023-03-14T09:12:55.230Z,0.40
2023-03-14T09:15:21.714Z,1.38
2023-03-14T09:17:48.164Z,2.40
2023-03-14T09:20:15.472Z,3.47
2023-03-14T09:22:42.122Z,5.22
2023-03-14T09:25:08.956Z,1.90
2023-03-14T09:27:35.354Z,2.50
2023-03-14T09:30:01.952Z,2.15
2023-03-14T09:32:28.523Z,3.67
2023-03-14T09:34:55.054Z,3.03
2023-03-14T09:37:21.887Z,3.08
2023-03-14T09:39:48.324Z,4.72
2023-03-14T09:42:19.378Z,5.88
2023-03-14T09:45:07.980Z,5.57
2023-03-14T09:47:36.721Z,9.85
2023-03-14T09:50:06.426Z,3.70
2023-03-14T09:52:38.286Z,3.40
2023-03-14T09:55:23.109Z,4.07
2023-03-14T09:57:52.438Z,3.85
2023-03-14T10:00:21.527Z,5.88
2023-03-14T10:02:55.358Z,6.15
2023-03-14T10:05:24.193Z,10.95
2023-03-14T10:07:50.885Z,2.43
2023-03-14T10:10:23.264Z,5.53
2023-03-14T10:12:58.999Z,4.63
2023-03-14T10:15:35.654Z,7.47
2023-03-14T10:18:04.742Z,6.03
2023-03-14T10:20:35.550Z,9.00
2023-03-14T10:23:05.606Z,7.70
2023-03-14T10:25:34.914Z,5.88
2023-03-14T10:28:02.670Z,6.80
2023-03-14T10:30:45.636Z,5.78
2023-03-14T10:33:20.462Z,5.70
2023-03-14T10:35:53.579Z,8.38
2023-03-14T10:38:20.141Z,4.82
2023-03-14T10:40:53.860Z,7.78
2023-03-14T10:43:27.674Z,10.02
2023-03-14T10:46:13.258Z,6.93
2023-03-14T10:48:42.903Z,8.57
2023-03-14T10:51:29.143Z,9.00
2023-03-14T10:54:01.541Z,10.05
2023-03-14T10:56:35.306Z,11.25
2023-03-14T10:59:03.114Z,11.73
2023-03-14T11:01:51.569Z,7.25
2023-03-14T11:04:36.886Z,10.20
2023-03-14T11:07:22.426Z,7.28
2023-03-14T11:10:03.751Z,5.55
2023-03-14T11:12:53.338Z,5.63
2023-03-14T11:15:33.743Z,8.02
2023-03-14T11:18:30.716Z,8.50
2023-03-14T11:21:04.165Z,5.78
2023-03-14T11:24:09.205Z,7.72
2023-03-14T11:26:46.920Z,6.00
2023-03-14T11:29:38.345Z,9.30
2023-03-14T11:32:14.021Z,9.90
2023-03-14T11:34:50.709Z,5.88
2023-03-14T11:37:27.875Z,6.85
2023-03-14T11:40:06.813Z,5.50
2023-03-14T11:42:33.717Z,4.72
2023-03-14T11:45:02.335Z,6.53
2023-03-14T11:47:38.754Z,11.25
2023-03-14T11:50:19.834Z,6.88
2023-03-14T11:52:57.552Z,3.85
2023-03-14T11:55:28.917Z,4.25
2023-03-14T11:58:19.152Z,3.78
2023-03-14T12:00:49.009Z,3.30
2023-03-14T12:03:26.897Z,5.07
2023-03-14T12:06:11.683Z,5.45
2023-03-14T12:08:51.854Z,3.47
2023-03-14T12:11:48.519Z,4.95
2023-03-14T12:14:25.794Z,6.95
2023-03-14T12:17:21.183Z,6.22
2023-03-14T12:19:48.709Z,9.00
2023-03-14T12:22:23.438Z,6.25
2023-03-14T12:24:54.721Z,9.90
2023-03-14T12:27:49.307Z,3.47
2023-03-14T12:30:35.483Z,10.45
2023-03-14T12:33:11.137Z,5.57
2023-03-14T12:35:58.979Z,5.60
2023-03-14T12:38:37.585Z,7.00
2023-03-14T12:41:45.300Z,6.28
2023-03-14T12:44:30.113Z,7.38
2023-03-14T12:47:21.381Z,6.65
2023-03-14T12:49:51.454Z,4.78
2023-03-14T12:52:22.874Z,7.88
2023-03-14T12:54:55.382Z,7.28
2023-03-14T12:57:26.894Z,5.70
2023-03-14T13:00:00.732Z,6.45
2023-03-14T13:02:41.022Z,5.78
2023-03-14T13:05:20.826Z,7.13
2023-03-14T13:07:47.269Z,5.00
2023-03-14T13:10:20.327Z,5.72
2023-03-14T13:12:54.871Z,6.70
2023-03-14T13:15:26.623Z,5.80
2023-03-14T13:17:57.624Z,5.70
2023-03-14T13:20:36.556Z,6.13
2023-03-14T13:23:03.572Z,5.30
2023-03-14T13:25:33.800Z,11.52
2023-03-14T13:28:02.377Z,6.30
2023-03-14T13:30:36.708Z,13.00
2023-03-14T13:33:05.745Z,10.30
2023-03-14T13:35:42.421Z,8.43
2023-03-14T13:38:25.818Z,5.60
2023-03-14T13:41:00.046Z,7.47
2023-03-14T13:43:34.370Z,8.95
2023-03-14T13:46:21.008Z,9.18
2023-03-14T13:49:01.038Z,8.55
2023-03-14T13:51:32.415Z,9.48
2023-03-14T13:54:03.922Z,12.32
2023-03-14T13:56:33.187Z,7.22
2023-03-14T13:58:59.798Z,13.85
2023-03-14T14:01:32.338Z,9.63
2023-03-14T14:04:06.580Z,13.75
2023-03-14T14:06:45.331Z,17.52
2023-03-14T14:09:40.415Z,8.73
2023-03-14T14:12:16.781Z,17.52
2023-03-14T14:14:53.963Z,15.85
2023-03-14T14:17:27.749Z,21.98
2023-03-14T14:19:57.361Z,17.58
2023-03-14T14:22:24.064Z,18.42
2023-03-14T14:24:52.803Z,18.15
2023-03-14T14:27:28.095Z,17.67
2023-03-14T14:30:04.441Z,17.10
2023-03-14T14:32:41.255Z,19.95
2023-03-14T14:35:11.186Z,24.98
2023-03-14T14:37:45.692Z,21.83
2023-03-14T14:40:22.648Z,19.35
2023-03-14T14:42:50.566Z,24.73
2023-03-14T14:45:28.868Z,23.90
2023-03-14T14:48:02.203Z,18.38
2023-03-14T14:50:39.214Z,19.90
2023-03-14T14:53:25.648Z,23.00
2023-03-14T14:55:54.735Z,18.88
2023-03-14T14:58:23.999Z,23.50
2023-03-14T15:00:54.933Z,15.57
2023-03-14T15:03:21.441Z,19.77
2023-03-14T15:05:48.203Z,14.00
2023-03-14T15:08:14.752Z,22.30
2023-03-14T15:10:41.286Z,22.48
2023-03-14T15:13:07.752Z,21.38
2023-03-14T15:15:35.594Z,25.58
2023-03-14T15:18:02.071Z,20.00
2023-03-14T15:20:28.690Z,22.33
2023-03-14T15:22:55.225Z,22.48
2023-03-14T15:25:47.479Z,20.10
2023-03-14T15:28:14.741Z,22.70
2023-03-14T15:30:41.151Z,22.38
2023-03-14T15:33:09.832Z,26.77
2023-03-14T15:35:38.140Z,19.65
2023-03-14T15:38:04.720Z,28.17
2023-03-14T15:40:31.583Z,23.27
2023-03-14T15:42:58.035Z,24.05
2023-03-14T15:45:24.537Z,25.85
2023-03-14T15:47:51.046Z,30.55
2023-03-14T15:50:17.666Z,22.33
2023-03-14T15:52:44.183Z,28.27
2023-03-14T15:55:10.625Z,22.95
2023-03-14T15:57:37.119Z,23.25
2023-03-14T16:00:05.453Z,18.42
2023-03-14T16:02:31.946Z,19.50
2023-03-14T16:04:58.549Z,21.48
2023-03-14T16:07:24.973Z,23.83
2023-03-14T16:09:51.500Z,17.13
2023-03-14T16:12:17.994Z,22.27
2023-03-14T16:14:44.762Z,19.55
2023-03-14T16:17:14.366Z,23.00
2023-03-14T16:19:40.796Z,27.58
2023-03-14T16:22:07.361Z,22.58
2023-03-14T16:24:33.799Z,18.08
2023-03-14T16:27:00.244Z,25.00
2023-03-14T16:29:27.061Z,23.20
2023-03-14T16:31:53.690Z,31.25
2023-03-14T16:34:20.275Z,24.05
2023-03-14T16:36:47.755Z,19.30
2023-03-14T16:39:14.332Z,17.10
2023-03-14T16:41:40.812Z,21.95
2023-03-14T16:44:07.312Z,25.10
2023-03-14T16:46:34.798Z,27.08
2023-03-14T16:49:01.359Z,23.75
2023-03-14T16:51:28.282Z,23.73
2023-03-14T16:53:54.838Z,23.80
2023-03-14T16:56:21.454Z,25.95
2023-03-14T16:58:49.184Z,20.42
2023-03-14T17:01:18.473Z,23.75
2023-03-14T17:06:15.596Z,20.45
2023-03-14T17:08:42.143Z,16.90
2023-03-14T17:11:09.021Z,21.40
2023-03-14T17:13:35.998Z,19.27
2023-03-14T17:16:02.671Z,18.83
2023-03-14T17:18:31.184Z,14.48
2023-03-14T17:20:59.252Z,23.57
2023-03-14T17:23:29.900Z,12.63
2023-03-14T17:25:56.779Z,19.27
2023-03-14T17:28:24.922Z,15.45
2023-03-14T17:30:51.778Z,14.35
2023-03-14T17:33:18.353Z,15.13
2023-03-14T17:35:45.048Z,10.65
2023-03-14T17:38:11.607Z,17.65
2023-03-14T17:40:38.144Z,15.30
2023-03-14T17:43:04.594Z,16.73
2023-03-14T17:45:31.106Z,16.55
2023-03-14T17:47:57.559Z,18.77
2023-03-14T17:50:24.112Z,14.30
2023-03-14T17:52:50.670Z,16.98
2023-03-14T17:55:17.173Z,13.70
2023-03-14T17:57:44.922Z,13.15
2023-03-14T18:00:12.552Z,17.50
2023-03-14T18:02:41.336Z,12.07
2023-03-14T18:05:08.528Z,8.13
2023-03-14T18:07:36.096Z,14.95
2023-03-14T18:10:03.406Z,14.13
2023-03-14T18:12:29.840Z,14.95
2023-03-14T18:14:56.288Z,16.25
2023-03-14T18:17:22.782Z,13.85
2023-03-14T18:19:49.367Z,16.48
2023-03-14T18:22:16.045Z,26.30
2023-03-14T18:24:42.775Z,17.08
2023-03-14T18:27:09.258Z,20.73
2023-03-14T18:29:36.878Z,18.58
2023-03-14T18:32:03.358Z,13.18
2023-03-14T18:34:29.822Z,18.73
2023-03-14T18:36:56.346Z,12.55
2023-03-14T18:39:22.799Z,14.95
2023-03-14T18:41:49.251Z,15.80
2023-03-14T18:44:16.057Z,16.45
2023-03-14T18:46:42.663Z,22.75
2023-03-14T18:49:11.120Z,17.23
2023-03-14T18:51:37.787Z,15.93
2023-03-14T18:54:10.421Z,14.57
2023-03-14T18:56:39.603Z,15.38
2023-03-14T18:59:06.441Z,13.50
2023-03-14T19:01:34.088Z,18.02
2023-03-14T19:04:01.433Z,15.73
2023-03-14T19:06:29.249Z,17.15
2023-03-14T19:08:55.696Z,18.90
2023-03-14T19:11:22.096Z,13.75
2023-03-14T19:13:49.526Z,19.38
2023-03-14T19:16:16.540Z,19.10
2023-03-14T19:18:43.468Z,16.05
2023-03-14T19:21:12.772Z,15.68
2023-03-14T19:23:42.133Z,12.73
2023-03-14T19:26:09.791Z,24.38
2023-03-14T19:28:36.210Z,19.30
2023-03-14T19:31:04.175Z,14.85
2023-03-14T19:33:31.822Z,14.20
2023-03-14T19:35:58.420Z,13.20
2023-03-14T19:38:24.918Z,15.70
2023-03-14T19:40:58.043Z,11.48
2023-03-14T19:43:25.147Z,16.40
2023-03-14T19:45:51.766Z,21.67
2023-03-14T19:48:18.331Z,13.85
2023-03-14T19:50:44.805Z,10.48
2023-03-14T19:53:11.529Z,16.10
2023-03-14T19:55:38.099Z,13.68
2023-03-14T19:58:05.457Z,18.13
2023-03-14T20:00:32.074Z,18.33
2023-03-14T20:02:58.675Z,14.02
2023-03-14T20:05:25.250Z,16.05
2023-03-14T20:07:51.818Z,16.55
2023-03-14T20:10:22.802Z,11.70
2023-03-14T20:12:53.206Z,23.73
2023-03-14T20:15:21.477Z,16.77
2023-03-14T20:17:49.048Z,14.43
2023-03-14T20:20:16.065Z,14.15
2023-03-14T20:22:43.093Z,16.25
2023-03-14T20:25:11.810Z,15.10
2023-03-14T20:27:38.889Z,13.00
2023-03-14T20:30:09.831Z,15.10
2023-03-14T20:32:37.058Z,13.65
2023-03-14T20:35:03.671Z,13.85
2023-03-14T20:37:30.076Z,24.77
2023-03-14T20:39:56.555Z,16.88
2023-03-14T20:42:24.401Z,18.92
2023-03-14T20:44:50.892Z,19.55
2023-03-14T20:47:17.396Z,17.90
2023-03-14T20:49:43.895Z,19.00
2023-03-14T20:52:11.855Z,16.17
2023-03-14T20:54:39.074Z,15.02
2023-03-14T20:57:06.279Z,14.38
2023-03-14T20:59:32.868Z,18.17
2023-03-14T21:01:59.473Z,16.02
2023-03-14T21:04:26.330Z,15.80
2023-03-14T21:06:56.106Z,18.27
2023-03-14T21:09:26.218Z,18.52
2023-03-14T21:11:53.014Z,16.25
2023-03-14T21:14:19.849Z,13.57
2023-03-14T21:16:46.689Z,19.20
2023-03-14T21:19:13.359Z,14.68
2023-03-14T21:21:39.883Z,19.08
2023-03-14T21:24:06.957Z,15.35
2023-03-14T21:26:33.699Z,16.40
2023-03-14T21:29:03.049Z,20.08
2023-03-14T21:33:58.788Z,19.90
2023-03-14T21:36:25.315Z,13.90
2023-03-14T21:38:51.845Z,19.17
2023-03-14T21:41:18.311Z,18.40
2023-03-14T21:43:45.904Z,17.13
2023-03-14T21:46:13.000Z,18.20
2023-03-14T21:48:39.470Z,19.00
2023-03-14T21:51:06.894Z,14.10
2023-03-14T21:53:34.523Z,21.83
2023-03-14T21:56:01.732Z,20.33
2023-03-14T21:58:28.297Z,12.30
2023-03-14T22:01:02.492Z,19.02
2023-03-14T22:03:30.218Z,18.77
2023-03-14T22:05:56.676Z,16.17
2023-03-14T22:08:23.112Z,17.83
2023-03-14T22:10:51.651Z,21.60
2023-03-14T22:13:19.033Z,13.80
2023-03-14T22:15:47.447Z,23.83
2023-03-14T22:18:15.728Z,13.47
2023-03-14T22:20:43.074Z,16.00
2023-03-14T22:23:10.488Z,19.80
2023-03-14T22:25:40.692Z,20.48
2023-03-14T22:28:07.173Z,18.40
2023-03-14T22:30:33.641Z,19.90
2023-03-14T22:33:00.714Z,20.95
2023-03-14T22:35:27.721Z,24.30
2023-03-14T22:37:54.483Z,18.67
2023-03-14T22:40:21.031Z,16.25
2023-03-14T22:42:48.238Z,21.33
2023-03-14T22:45:15.527Z,20.98
2023-03-14T22:47:41.967Z,20.75
2023-03-14T22:50:08.837Z,25.00
2023-03-14T22:52:35.544Z,22.73
2023-03-14T22:55:02.013Z,22.20
2023-03-14T22:57:28.594Z,27.02
2023-03-14T22:59:55.175Z,21.33
2023-03-14T23:02:21.733Z,22.98
2023-03-14T23:04:48.326Z,18.63
2023-03-14T23:07:16.096Z,19.60
2023-03-14T23:09:42.550Z,19.42
2023-03-14T23:12:09.322Z,19.75
2023-03-14T23:14:35.922Z,18.77
2023-03-14T23:17:05.566Z,20.95
2023-03-14T23:19:32.106Z,19.80
2023-03-14T23:21:58.586Z,23.00
2023-03-14T23:24:25.052Z,19.38
2023-03-14T23:26:51.647Z,20.42
2023-03-14T23:29:18.159Z,20.30
2023-03-14T23:31:44.689Z,19.77
2023-03-14T23:34:11.190Z,25.10
2023-03-14T23:36:38.186Z,18.33
2023-03-14T23:39:06.787Z,17.30
2023-03-14T23:41:34.039Z,18.13
2023-03-14T23:44:01.908Z,16.05
2023-03-14T23:46:29.799Z,21.73
2023-03-14T23:48:56.605Z,16.73
2023-03-14T23:51:23.379Z,19.75
2023-03-14T23:53:49.937Z,21.50
2023-03-14T23:56:17.757Z,15.73
2023-03-14T23:58:44.222Z,22.33
